createdAt,value
2022-12-24T00:01:05.598Z,9.17
2022-12-24T00:03:33.115Z,10.33
2022-12-24T00:06:04.764Z,8.70
2022-12-24T00:08:31.702Z,7.97
2022-12-24T00:10:58.623Z,8.03
2022-12-24T00:13:25.670Z,8.70
2022-12-24T00:15:52.703Z,8.50
2022-12-24T00:18:19.714Z,7.93
2022-12-24T00:20:48.822Z,8.50
2022-12-24T00:23:16.826Z,8.07
2022-12-24T00:25:44.422Z,7.67
2022-12-24T00:28:12.335Z,7.80
2022-12-24T00:30:40.450Z,8.13
2022-12-24T00:33:07.754Z,7.30
2022-12-24T00:35:38.745Z,7.93
2022-12-24T00:38:06.827Z,9.23
2022-12-24T00:40:34.114Z,7.97
2022-12-24T00:43:01.092Z,7.87
2022-12-24T00:45:28.120Z,8.77
2022-12-24T00:47:55.249Z,9.53
2022-12-24T00:50:22.201Z,8.87
2022-12-24T00:52:49.175Z,8.17
2022-12-24T00:55:16.187Z,6.90
2022-12-24T00:57:43.263Z,8.23
2022-12-24T01:00:10.721Z,8.13
2022-12-24T01:02:38.255Z,7.87
2022-12-24T01:05:11.870Z,7.83
2022-12-24T01:07:45.043Z,5.93
2022-12-24T01:10:16.312Z,7.40
2022-12-24T01:12:44.849Z,7.17
2022-12-24T01:15:14.610Z,7.97
2022-12-24T01:17:41.792Z,8.17
2022-12-24T01:20:14.530Z,7.13
2022-12-24T01:22:41.576Z,8.50
2022-12-24T01:25:08.909Z,7.97
2022-12-24T01:27:35.817Z,7.90
2022-12-24T01:30:02.990Z,7.20
2022-12-24T01:32:29.918Z,8.10
2022-12-24T01:34:56.884Z,8.10
2022-12-24T01:37:24.138Z,8.07
2022-12-24T01:39:51.062Z,7.93
2022-12-24T01:42:42.208Z,7.80
2022-12-24T01:45:50.249Z,7.00
2022-12-24T01:48:26.187Z,8.03
2022-12-24T01:51:02.680Z,7.10
2022-12-24T01:53:32.132Z,8.60
2022-12-24T01:55:59.623Z,7.63
2022-12-24T01:58:27.225Z,7.93
2022-12-24T02:00:54.171Z,7.27
2022-12-24T02:03:21.815Z,7.33
2022-12-24T02:05:55.091Z,7.53
2022-12-24T02:08:22.170Z,7.23
2022-12-24T02:10:50.399Z,8.67
2022-12-24T02:13:21.098Z,8.00
2022-12-24T02:16:18.738Z,7.93
2022-12-24T02:19:10.464Z,7.37
2022-12-24T02:22:15.006Z,8.83
2022-12-24T02:24:53.831Z,8.73
2022-12-24T02:27:42.380Z,8.90
2022-12-24T02:30:22.745Z,8.80
2022-12-24T02:33:16.165Z,8.93
2022-12-24T02:36:02.855Z,8.63
2022-12-24T02:38:37.490Z,9.40
2022-12-24T02:41:23.805Z,8.43
2022-12-24T02:43:53.626Z,8.33
2022-12-24T02:46:25.691Z,9.60
2022-12-24T02:48:52.922Z,9.67
2022-12-24T02:51:24.858Z,10.33
2022-12-24T02:53:52.489Z,9.33
2022-12-24T02:56:34.550Z,9.77
2022-12-24T02:59:33.178Z,9.10
2022-12-24T03:02:24.943Z,9.17
2022-12-24T03:04:55.992Z,9.13
2022-12-24T03:07:31.560Z,10.83
2022-12-24T03:10:26.444Z,10.60
2022-12-24T03:13:06.847Z,9.90
2022-12-24T03:15:34.412Z,10.80
2022-12-24T03:18:03.343Z,10.73
2022-12-24T03:20:45.435Z,10.60
2022-12-24T03:23:13.477Z,10.20
2022-12-24T03:25:43.326Z,10.17
2022-12-24T03:28:14.423Z,10.40
2022-12-24T03:30:48.306Z,10.23
2022-12-24T03:33:15.995Z,10.43
2022-12-24T03:35:42.870Z,11.67
2022-12-24T03:38:09.788Z,10.27
2022-12-24T03:40:36.767Z,11.57
2022-12-24T03:43:03.752Z,10.90
2022-12-24T03:45:30.812Z,10.00
2022-12-24T03:47:57.788Z,10.20
2022-12-24T03:50:24.688Z,11.40
2022-12-24T03:52:51.654Z,11.10
2022-12-24T03:55:18.572Z,11.87
2022-12-24T03:57:45.511Z,10.17
2022-12-24T04:00:13.718Z,10.60
2022-12-24T04:02:41.008Z,10.50
2022-12-24T04:05:11.315Z,10.00
2022-12-24T04:07:38.199Z,9.93
2022-12-24T04:10:05.614Z,10.97
2022-12-24T04:12:32.556Z,11.40
2022-12-24T04:14:59.443Z,11.13
2022-12-24T04:17:26.317Z,12.20
2022-12-24T04:19:53.267Z,10.60
2022-12-24T04:22:20.190Z,12.00
2022-12-24T04:24:47.187Z,11.10
2022-12-24T04:27:15.558Z,11.03
2022-12-24T04:29:42.522Z,11.17
2022-12-24T04:32:10.285Z,10.57
2022-12-24T04:34:37.841Z,10.50
2022-12-24T04:37:05.009Z,11.83
2022-12-24T04:39:32.340Z,10.97
2022-12-24T04:41:59.229Z,9.70
2022-12-24T04:44:26.215Z,10.50
2022-12-24T04:46:53.120Z,11.20
2022-12-24T04:49:20.058Z,9.33
2022-12-24T04:51:46.978Z,10.20
2022-12-24T04:54:13.871Z,9.50
2022-12-24T04:56:40.768Z,11.47
2022-12-24T04:59:07.727Z,10.93
2022-12-24T05:01:34.761Z,10.13
2022-12-24T05:04:01.824Z,10.60
2022-12-24T05:06:33.126Z,10.53
2022-12-24T05:09:01.102Z,10.30
2022-12-24T05:11:28.302Z,10.70
2022-12-24T05:13:55.394Z,11.50
2022-12-24T05:16:24.059Z,10.27
2022-12-24T05:18:52.252Z,9.57
2022-12-24T05:21:22.546Z,11.13
2022-12-24T05:24:08.659Z,9.87
2022-12-24T05:27:04.607Z,10.40
2022-12-24T05:29:31.514Z,11.03
2022-12-24T05:31:58.434Z,10.30
2022-12-24T05:34:25.554Z,10.70
2022-12-24T05:36:52.518Z,10.20
2022-12-24T05:39:19.624Z,9.90
2022-12-24T05:41:47.908Z,11.07
2022-12-24T05:44:16.200Z,11.83
2022-12-24T05:46:44.296Z,11.60
2022-12-24T05:49:11.699Z,10.93
2022-12-24T05:51:40.452Z,11.53
2022-12-24T05:54:07.623Z,12.43
2022-12-24T05:56:34.578Z,10.70
2022-12-24T05:59:01.655Z,10.37
2022-12-24T06:01:28.784Z,11.50
2022-12-24T06:03:57.943Z,11.60
2022-12-24T06:06:27.862Z,12.37
2022-12-24T06:08:56.222Z,11.37
2022-12-24T06:11:26.244Z,12.07
2022-12-24T06:13:53.981Z,10.83
2022-12-24T06:16:22.416Z,10.63
2022-12-24T06:18:50.935Z,11.93
2022-12-24T06:21:18.195Z,12.10
2022-12-24T06:23:46.228Z,11.07
2022-12-24T06:26:21.079Z,11.60
2022-12-24T06:28:49.114Z,12.07
2022-12-24T06:31:20.215Z,12.13
2022-12-24T06:33:47.476Z,12.50
2022-12-24T06:36:22.778Z,12.37
2022-12-24T06:38:50.367Z,13.73
2022-12-24T06:41:18.800Z,11.00
2022-12-24T06:43:51.135Z,12.77
2022-12-24T06:46:19.214Z,12.80
2022-12-24T06:48:47.099Z,11.90
2022-12-24T06:51:16.852Z,11.40
2022-12-24T06:53:43.710Z,12.13
2022-12-24T06:56:13.657Z,12.30
2022-12-24T06:58:41.716Z,11.63
2022-12-24T07:01:14.569Z,11.87
2022-12-24T07:03:42.172Z,12.17
2022-12-24T07:06:24.400Z,12.60
2022-12-24T07:08:51.766Z,11.40
2022-12-24T07:11:19.167Z,12.07
2022-12-24T07:13:47.833Z,12.00
2022-12-24T07:16:15.165Z,12.37
2022-12-24T07:18:42.219Z,12.63
2022-12-24T07:21:09.591Z,11.03
2022-12-24T07:23:36.683Z,12.37
2022-12-24T07:26:07.219Z,12.03
2022-12-24T07:28:34.674Z,11.57
2022-12-24T07:31:02.256Z,12.80
2022-12-24T07:33:29.411Z,11.30
2022-12-24T07:36:06.186Z,11.20
2022-12-24T07:38:34.908Z,11.50
2022-12-24T07:41:02.278Z,25.10
2022-12-24T07:43:29.499Z,17.70
2022-12-24T07:45:57.747Z,15.27
2022-12-24T07:48:26.819Z,17.57
2022-12-24T07:50:54.124Z,20.10
2022-12-24T07:53:21.087Z,13.53
2022-12-24T07:55:48.035Z,13.90
2022-12-24T07:58:14.947Z,23.57
2022-12-24T08:00:42.237Z,15.10
2022-12-24T08:03:18.771Z,18.90
2022-12-24T08:05:46.638Z,15.83
2022-12-24T08:08:13.883Z,12.97
2022-12-24T08:10:43.075Z,13.40
2022-12-24T08:13:09.994Z,13.13
2022-12-24T08:15:36.936Z,13.20
2022-12-24T08:18:04.087Z,11.70
2022-12-24T08:20:30.978Z,13.27
2022-12-24T08:22:57.870Z,13.93
2022-12-24T08:25:24.719Z,15.10
2022-12-24T08:27:51.672Z,16.80
2022-12-24T08:30:21.215Z,15.03
2022-12-24T08:32:48.806Z,15.60
2022-12-24T08:35:15.913Z,14.20
2022-12-24T08:37:43.038Z,13.40
2022-12-24T08:40:11.518Z,12.50
2022-12-24T08:42:38.683Z,13.60
2022-12-24T08:45:06.659Z,12.50
2022-12-24T08:47:33.550Z,12.50
2022-12-24T08:50:00.478Z,14.97
2022-12-24T08:52:27.360Z,11.37
2022-12-24T08:54:54.218Z,12.10
2022-12-24T08:57:21.139Z,12.80
2022-12-24T08:59:48.109Z,12.70
2022-12-24T09:02:15.229Z,12.57
2022-12-24T09:04:42.363Z,12.63
2022-12-24T09:07:10.549Z,11.40
2022-12-24T09:09:38.354Z,11.13
2022-12-24T09:12:08.801Z,13.57
2022-12-24T09:14:35.855Z,14.30
2022-12-24T09:17:02.829Z,13.93
2022-12-24T09:19:29.873Z,12.50
2022-12-24T09:21:56.795Z,13.83
2022-12-24T09:24:23.743Z,13.20
2022-12-24T09:26:57.367Z,12.43
2022-12-24T09:29:25.237Z,11.40
2022-12-24T09:31:52.227Z,12.60
2022-12-24T09:34:19.497Z,14.37
2022-12-24T09:36:47.271Z,13.97
2022-12-24T09:39:14.963Z,13.27
2022-12-24T09:42:18.628Z,13.00
2022-12-24T09:45:22.950Z,13.87
2022-12-24T09:47:53.317Z,12.00
2022-12-24T09:50:32.994Z,13.07
2022-12-24T09:53:05.017Z,13.47
2022-12-24T09:55:45.131Z,13.20
2022-12-24T09:58:27.832Z,13.00
2022-12-24T10:00:56.511Z,15.40
2022-12-24T10:03:23.491Z,13.47
2022-12-24T10:06:09.412Z,14.63
2022-12-24T10:09:24.108Z,13.23
2022-12-24T10:12:07.280Z,14.37
2022-12-24T10:14:52.890Z,16.60
2022-12-24T10:17:51.707Z,14.30
2022-12-24T10:20:30.422Z,14.30
2022-12-24T10:23:18.644Z,15.80
2022-12-24T10:26:27.864Z,14.03
2022-12-24T10:29:19.386Z,13.33
2022-12-24T10:32:11.258Z,12.47
2022-12-24T10:34:58.908Z,11.80
2022-12-24T10:37:28.727Z,13.67
2022-12-24T10:39:57.858Z,11.93
2022-12-24T10:42:37.246Z,11.80
2022-12-24T10:45:07.900Z,11.10
2022-12-24T10:47:39.283Z,11.80
2022-12-24T10:50:33.673Z,11.67
2022-12-24T10:53:15.124Z,9.80
2022-12-24T10:55:42.309Z,9.70
2022-12-24T10:58:19.838Z,9.87
2022-12-24T11:00:54.800Z,10.97
2022-12-24T11:03:36.657Z,11.30
2022-12-24T11:06:21.065Z,10.10
2022-12-24T11:08:48.333Z,8.70
2022-12-24T11:11:20.911Z,7.63
2022-12-24T11:13:50.837Z,9.00
2022-12-24T11:16:38.003Z,9.00
2022-12-24T11:19:16.881Z,7.77
2022-12-24T11:21:43.793Z,8.07
2022-12-24T11:24:13.615Z,6.97
2022-12-24T11:26:43.751Z,7.80
2022-12-24T11:29:27.011Z,8.07
2022-12-24T11:32:21.941Z,8.60
2022-12-24T11:34:49.712Z,7.63
2022-12-24T11:37:22.590Z,7.43
2022-12-24T11:40:02.198Z,7.33
2022-12-24T11:42:35.357Z,5.90
2022-12-24T11:45:06.979Z,7.50
2022-12-24T11:47:38.520Z,6.50
2022-12-24T11:50:27.630Z,7.70
2022-12-24T11:53:03.161Z,6.53
2022-12-24T11:55:51.181Z,6.00
2022-12-24T11:58:26.183Z,7.37
2022-12-24T12:01:16.347Z,6.87
2022-12-24T12:03:51.909Z,6.13
2022-12-24T12:07:14.328Z,7.57
2022-12-24T12:09:48.065Z,7.30
2022-12-24T12:12:29.627Z,6.43
2022-12-24T12:15:05.078Z,6.13
2022-12-24T12:17:48.628Z,5.90
2022-12-24T12:20:19.568Z,6.50
2022-12-24T12:23:40.792Z,5.67
2022-12-24T12:26:26.858Z,5.27
2022-12-24T12:29:29.336Z,5.67
2022-12-24T12:32:49.341Z,5.20
2022-12-24T12:35:26.726Z,6.43
2022-12-24T12:38:06.034Z,5.70
2022-12-24T12:41:24.305Z,5.70
2022-12-24T12:44:15.279Z,5.90
2022-12-24T12:47:04.027Z,4.87
2022-12-24T12:49:52.905Z,4.90
2022-12-24T12:52:30.188Z,5.10
2022-12-24T12:55:49.555Z,5.03
2022-12-24T12:58:36.751Z,5.07
2022-12-24T13:04:58.635Z,5.23
2022-12-24T13:08:02.545Z,4.83
2022-12-24T13:10:42.163Z,4.77
2022-12-24T13:13:34.266Z,4.60
2022-12-24T13:16:21.396Z,4.60
2022-12-24T13:19:09.528Z,4.53
2022-12-24T13:21:36.818Z,5.40
2022-12-24T13:24:21.565Z,5.90
2022-12-24T13:27:17.321Z,5.10
2022-12-24T13:30:09.739Z,9.93
2022-12-24T13:32:52.443Z,6.47
2022-12-24T13:35:19.547Z,5.70
2022-12-24T13:37:48.294Z,5.20
2022-12-24T13:40:26.305Z,5.13
2022-12-24T13:42:59.215Z,5.17
2022-12-24T13:45:43.825Z,5.87
2022-12-24T13:48:28.625Z,5.57
2022-12-24T13:51:01.098Z,5.43
2022-12-24T13:53:41.856Z,5.13
2022-12-24T13:56:18.070Z,5.87
2022-12-24T13:58:53.519Z,5.00
2022-12-24T14:01:33.170Z,5.70
2022-12-24T14:04:04.945Z,6.13
2022-12-24T14:06:37.320Z,6.07
2022-12-24T14:09:22.051Z,5.40
2022-12-24T14:12:04.614Z,6.30
2022-12-24T14:14:41.953Z,6.10
2022-12-24T14:17:27.575Z,6.03
2022-12-24T14:20:00.254Z,6.27
2022-12-24T14:22:46.318Z,7.33
2022-12-24T14:25:22.244Z,5.60
2022-12-24T14:27:57.782Z,6.67
2022-12-24T14:30:31.385Z,6.00
2022-12-24T14:32:59.162Z,6.13
2022-12-24T14:35:36.809Z,7.40
2022-12-24T14:38:14.593Z,7.40
2022-12-24T14:40:49.867Z,6.60
2022-12-24T14:44:08.054Z,5.93
2022-12-24T14:46:48.154Z,6.47
2022-12-24T14:49:59.639Z,6.30
2022-12-24T14:53:27.602Z,7.17
2022-12-24T14:56:00.429Z,7.00
2022-12-24T14:58:52.304Z,5.83
2022-12-24T15:01:37.762Z,5.73
2022-12-24T15:04:32.792Z,6.60
2022-12-24T15:07:16.522Z,6.47
2022-12-24T15:09:50.462Z,8.20
2022-12-24T15:12:22.516Z,7.73
2022-12-24T15:15:06.294Z,7.80
2022-12-24T15:17:35.900Z,7.50
2022-12-24T15:20:05.925Z,7.80
2022-12-24T15:22:33.800Z,7.23
2022-12-24T15:25:01.258Z,8.90
2022-12-24T15:27:34.338Z,7.77
2022-12-24T15:30:16.156Z,6.90
2022-12-24T15:32:44.525Z,8.37
2022-12-24T15:36:19.348Z,7.97
2022-12-24T15:39:01.777Z,24.07
2022-12-24T15:41:59.929Z,8.77
2022-12-24T15:44:50.445Z,6.13
2022-12-24T15:48:21.759Z,7.60
2022-12-24T15:59:27.195Z,8.00
2022-12-24T16:06:13.339Z,7.00
2022-12-24T16:06:26.546Z,8.40
2022-12-24T16:09:20.030Z,7.53
2022-12-24T16:12:02.853Z,7.83
2022-12-24T16:14:59.287Z,8.70
2022-12-24T16:17:49.058Z,10.87
2022-12-24T16:21:02.346Z,10.93
2022-12-24T16:24:15.631Z,13.40
2022-12-24T16:27:01.140Z,10.77
2022-12-24T16:30:22.634Z,13.43
2022-12-24T16:33:13.754Z,10.47
2022-12-24T16:36:33.687Z,10.37
2022-12-24T16:39:32.512Z,9.83
2022-12-24T16:46:03.532Z,10.37
2022-12-24T16:49:17.430Z,11.90
2022-12-24T16:52:31.909Z,12.37
2022-12-24T16:55:28.077Z,13.47
2022-12-24T16:58:11.042Z,14.40
2022-12-24T17:00:52.885Z,12.80
2022-12-24T17:03:38.731Z,14.33
2022-12-24T17:06:15.817Z,13.60
2022-12-24T17:09:06.606Z,13.47
2022-12-24T17:12:07.086Z,16.60
2022-12-24T17:14:52.956Z,16.00
2022-12-24T17:17:52.031Z,15.00
2022-12-24T17:20:49.883Z,12.97
2022-12-24T17:23:44.212Z,12.87
2022-12-24T17:27:08.119Z,12.40
2022-12-24T17:29:55.034Z,13.00
2022-12-24T17:32:44.544Z,14.57
2022-12-24T17:36:30.178Z,14.00
2022-12-24T17:39:59.062Z,13.70
2022-12-24T17:43:18.024Z,14.63
2022-12-24T17:46:16.529Z,13.23
2022-12-24T17:49:14.710Z,16.10
2022-12-24T17:52:22.290Z,13.67
2022-12-24T17:55:33.287Z,12.50
2022-12-24T17:58:20.412Z,12.57
2022-12-24T18:00:53.676Z,11.97
2022-12-24T18:03:42.886Z,11.40
2022-12-24T18:06:28.517Z,13.53
2022-12-24T18:09:05.312Z,12.70
2022-12-24T18:11:40.838Z,12.00
2022-12-24T18:14:20.288Z,12.03
2022-12-24T18:17:03.503Z,12.87
2022-12-24T18:19:34.882Z,13.50
2022-12-24T18:22:25.586Z,12.73
2022-12-24T18:25:06.648Z,11.77
2022-12-24T18:27:35.451Z,11.47
2022-12-24T18:30:03.784Z,11.70
2022-12-24T18:32:30.686Z,12.47
2022-12-24T18:34:59.574Z,11.10
2022-12-24T18:37:26.608Z,12.00
2022-12-24T18:39:53.522Z,11.10
2022-12-24T18:42:20.484Z,10.13
2022-12-24T18:44:47.535Z,12.83
2022-12-24T18:47:14.559Z,9.97
2022-12-24T18:49:41.508Z,9.87
2022-12-24T18:52:10.956Z,10.23
2022-12-24T18:54:41.162Z,10.60
2022-12-24T18:57:08.237Z,12.50
2022-12-24T18:59:37.858Z,10.30
2022-12-24T19:02:05.326Z,10.53
2022-12-24T19:04:32.328Z,9.43
2022-12-24T19:07:00.443Z,9.03
2022-12-24T19:09:27.411Z,9.83
2022-12-24T19:11:54.430Z,10.20
2022-12-24T19:14:21.346Z,10.33
2022-12-24T19:16:48.395Z,10.33
2022-12-24T19:19:15.700Z,11.07
2022-12-24T19:21:42.635Z,9.13
2022-12-24T19:24:10.608Z,9.57
2022-12-24T19:26:37.935Z,9.60
2022-12-24T19:29:04.871Z,8.90
2022-12-24T19:31:32.435Z,9.23
2022-12-24T19:33:59.443Z,8.00
2022-12-24T19:36:29.990Z,11.07
2022-12-24T19:38:58.695Z,10.30
2022-12-24T19:41:29.238Z,9.33
2022-12-24T19:43:59.371Z,8.80
2022-12-24T19:46:30.609Z,9.10
2022-12-24T19:49:01.049Z,9.10
2022-12-24T19:51:29.281Z,10.87
2022-12-24T19:53:58.681Z,10.03
2022-12-24T19:56:29.046Z,13.17
2022-12-24T19:58:57.480Z,11.60
2022-12-24T20:01:28.473Z,13.27
2022-12-24T20:03:56.085Z,9.30
2022-12-24T20:06:26.928Z,8.97
2022-12-24T20:09:04.818Z,7.67
2022-12-24T20:11:32.479Z,9.00
2022-12-24T20:14:02.083Z,9.07
2022-12-24T20:16:29.827Z,8.60
2022-12-24T20:19:01.104Z,8.67
2022-12-24T20:21:28.570Z,7.97
2022-12-24T20:23:56.016Z,7.43
2022-12-24T20:26:27.394Z,10.00
2022-12-24T20:28:54.912Z,9.20
2022-12-24T20:31:28.977Z,9.70
2022-12-24T20:33:57.559Z,9.77
2022-12-24T20:36:25.639Z,9.30
2022-12-24T20:38:53.295Z,8.63
2022-12-24T20:41:23.151Z,8.27
2022-12-24T20:43:50.848Z,7.60
2022-12-24T20:46:21.059Z,6.97
2022-12-24T20:48:48.489Z,7.33
2022-12-24T20:51:24.405Z,8.33
2022-12-24T20:53:58.224Z,8.00
2022-12-24T20:56:25.901Z,8.60
2022-12-24T20:58:52.893Z,9.10
2022-12-24T21:01:26.026Z,8.00
2022-12-24T21:03:55.211Z,7.50
2022-12-24T21:06:24.263Z,8.23
2022-12-24T21:08:53.448Z,7.40
2022-12-24T21:11:40.366Z,8.37
2022-12-24T21:14:07.723Z,7.80
2022-12-24T21:16:36.614Z,7.63
2022-12-24T21:19:05.525Z,6.73
2022-12-24T21:21:32.946Z,6.47
2022-12-24T21:24:00.615Z,6.63
2022-12-24T21:26:27.509Z,6.60
2022-12-24T21:28:54.724Z,7.60
2022-12-24T21:31:22.094Z,6.13
2022-12-24T21:33:49.294Z,6.23
2022-12-24T21:36:17.043Z,5.80
2022-12-24T21:38:44.173Z,6.03
2022-12-24T21:41:19.051Z,5.73
2022-12-24T21:43:46.490Z,6.07
2022-12-24T21:46:22.282Z,6.97
2022-12-24T21:49:10.152Z,6.17
2022-12-24T21:51:37.403Z,6.70
2022-12-24T21:54:25.355Z,6.03
2022-12-24T21:57:13.778Z,6.63
2022-12-24T21:59:40.862Z,5.70
2022-12-24T22:02:10.350Z,5.73
2022-12-24T22:04:37.882Z,7.23
2022-12-24T22:07:23.840Z,6.63
2022-12-24T22:10:09.425Z,6.33
2022-12-24T22:12:36.864Z,6.40
2022-12-24T22:15:06.955Z,10.00
2022-12-24T22:17:33.860Z,6.30
2022-12-24T22:20:02.102Z,6.40
2022-12-24T22:22:28.992Z,5.93
2022-12-24T22:24:55.909Z,6.43
2022-12-24T22:27:23.987Z,7.47
2022-12-24T22:29:50.915Z,7.03
2022-12-24T22:32:17.801Z,6.70
2022-12-24T22:34:45.081Z,6.77
2022-12-24T22:37:11.981Z,8.20
2022-12-24T22:39:39.184Z,7.30
2022-12-24T22:42:06.204Z,6.33
2022-12-24T22:44:33.157Z,6.37
2022-12-24T22:47:00.166Z,7.13
2022-12-24T22:49:27.129Z,7.00
2022-12-24T22:51:58.000Z,8.33
2022-12-24T22:54:25.518Z,6.93
2022-12-24T22:56:52.406Z,7.77
2022-12-24T22:59:19.389Z,6.67
2022-12-24T23:01:47.897Z,7.20
2022-12-24T23:04:15.327Z,7.37
2022-12-24T23:06:44.619Z,7.43
2022-12-24T23:09:15.720Z,6.43
2022-12-24T23:11:43.795Z,7.67
2022-12-24T23:14:39.010Z,7.53
2022-12-24T23:17:06.400Z,7.73
2022-12-24T23:19:34.684Z,7.23
2022-12-24T23:22:03.215Z,7.50
2022-12-24T23:24:31.227Z,7.17
2022-12-24T23:27:03.809Z,9.53
2022-12-24T23:29:32.259Z,7.07
2022-12-24T23:31:59.890Z,8.50
2022-12-24T23:34:26.796Z,7.80
2022-12-24T23:36:53.746Z,8.20
2022-12-24T23:39:20.657Z,7.00
2022-12-24T23:41:47.537Z,6.93
2022-12-24T23:44:14.453Z,9.23
2022-12-24T23:46:41.589Z,9.40
2022-12-24T23:49:12.991Z,7.03
2022-12-24T23:51:39.909Z,7.73
2022-12-24T23:54:06.877Z,7.70
2022-12-24T23:56:33.797Z,7.50
2022-12-24T23:59:02.849Z,7.30
